createdAt,value
2016-03-25T00:00:51.809Z,0
2016-03-25T00:01:51.812Z,0
2016-03-25T00:02:51.831Z,0
2016-03-25T00:03:51.833Z,0
2016-03-25T00:04:51.835Z,0
2016-03-25T00:05:51.854Z,0
2016-03-25T00:06:51.849Z,0
2016-03-25T00:07:51.851Z,0
2016-03-25T00:08:52.353Z,0
2016-03-25T00:09:51.856Z,0
2016-03-25T00:10:51.890Z,0
2016-03-25T00:11:51.924Z,0
2016-03-25T00:12:51.895Z,0
2016-03-25T00:13:51.758Z,0
2016-03-25T00:14:51.901Z,0
2016-03-25T00:15:51.903Z,0
2016-03-25T00:16:51.891Z,0
2016-03-25T00:17:51.909Z,0
2016-03-25T00:18:51.927Z,0
2016-03-25T00:19:51.930Z,0
2016-03-25T00:20:51.964Z,0
2016-03-25T00:21:51.950Z,0
2016-03-25T00:22:51.969Z,0
2016-03-25T00:23:51.941Z,0
2016-03-25T00:24:51.974Z,0
2016-03-25T00:25:51.961Z,0
2016-03-25T00:26:52.027Z,0
2016-03-25T00:27:51.966Z,0
2016-03-25T00:28:52.049Z,0
2016-03-25T00:29:51.988Z,0
2016-03-25T00:30:51.990Z,0
2016-03-25T00:31:52.024Z,0
2016-03-25T00:32:51.996Z,0
2016-03-25T00:33:52.015Z,0
2016-03-25T00:34:52.033Z,0
2016-03-25T00:35:52.020Z,0
2016-03-25T00:36:52.038Z,0
2016-03-25T00:37:52.056Z,0
2016-03-25T00:38:52.043Z,0
2016-03-25T00:39:52.062Z,0
2016-03-25T00:40:52.064Z,0
2016-03-25T00:41:52.051Z,0
2016-03-25T00:42:52.070Z,0
2016-03-25T00:43:52.088Z,0
2016-03-25T00:44:52.076Z,0
2016-03-25T00:45:52.094Z,0
2016-03-25T00:46:52.111Z,0
2016-03-25T00:47:52.100Z,0
2016-03-25T00:48:52.133Z,0
2016-03-25T00:49:52.135Z,0
2016-03-25T00:50:52.123Z,0
2016-03-25T00:51:52.141Z,0
2016-03-25T00:52:52.128Z,0
2016-03-25T00:53:52.162Z,0
2016-03-25T00:54:52.149Z,0
2016-03-25T00:55:52.152Z,0
2016-03-25T00:56:52.169Z,0
2016-03-25T00:57:52.188Z,0
2016-03-25T00:58:52.018Z,0
2016-03-25T00:59:52.178Z,0
2016-03-25T01:00:52.196Z,0
2016-03-25T01:01:52.183Z,0
2016-03-25T01:02:52.186Z,0
2016-03-25T01:03:52.221Z,0
2016-03-25T01:04:52.207Z,0
2016-03-25T01:05:52.210Z,0
2016-03-25T01:06:52.072Z,0
2016-03-25T01:07:52.278Z,0
2016-03-25T01:08:52.234Z,0
2016-03-25T01:09:52.237Z,0
2016-03-25T01:10:52.239Z,0
2016-03-25T01:11:52.273Z,0
2016-03-25T01:12:52.259Z,0
2016-03-25T01:13:52.262Z,0
2016-03-25T01:14:52.265Z,0
2016-03-25T01:15:52.300Z,0
2016-03-25T01:16:52.287Z,0
2016-03-25T01:17:52.289Z,0
2016-03-25T01:18:52.308Z,0
2016-03-25T01:19:52.295Z,0
2016-03-25T01:20:52.297Z,0
2016-03-25T01:21:52.316Z,0
2016-03-25T01:22:52.208Z,0
2016-03-25T01:23:52.321Z,0
2016-03-25T01:24:52.339Z,0
2016-03-25T01:25:52.342Z,0
2016-03-25T01:26:52.360Z,0
2016-03-25T01:27:52.347Z,0
2016-03-25T01:28:52.349Z,0
2016-03-25T01:29:52.353Z,0
2016-03-25T01:30:52.371Z,0
2016-03-25T01:31:52.374Z,0
2016-03-25T01:32:52.376Z,0
2016-03-25T01:33:52.379Z,0
2016-03-25T01:34:52.413Z,0
2016-03-25T01:35:52.400Z,0
2016-03-25T01:36:52.402Z,0
2016-03-25T01:37:52.280Z,0
2016-03-25T01:38:52.423Z,0
2016-03-25T01:39:52.426Z,0
2016-03-25T01:40:52.445Z,0
2016-03-25T01:41:52.432Z,0
2016-03-25T01:42:52.450Z,0
2016-03-25T01:43:52.500Z,0
2016-03-25T01:44:52.456Z,0
2016-03-25T01:45:52.458Z,0
2016-03-25T01:46:52.476Z,0
2016-03-25T01:47:52.307Z,0
2016-03-25T01:48:52.497Z,0
2016-03-25T01:49:52.484Z,0
2016-03-25T01:50:52.503Z,0
2016-03-25T01:51:52.489Z,0
2016-03-25T01:52:52.524Z,0
2016-03-25T01:53:52.511Z,0
2016-03-25T01:54:52.529Z,0
2016-03-25T01:55:52.516Z,0
2016-03-25T01:56:59.316Z,0
2016-03-25T01:57:52.538Z,0
2016-03-25T01:58:52.540Z,0
2016-03-25T01:59:52.433Z,0
2016-03-25T02:00:52.561Z,0
2016-03-25T02:01:53.142Z,0
2016-03-25T02:02:52.582Z,0
2016-03-25T02:03:52.568Z,0
2016-03-25T02:04:52.587Z,0
2016-03-25T02:05:52.574Z,0
2016-03-25T02:06:52.593Z,0
2016-03-25T02:07:52.595Z,0
2016-03-25T02:08:52.598Z,0
2016-03-25T02:09:52.601Z,0
2016-03-25T02:10:52.618Z,0
2016-03-25T02:11:52.621Z,0
2016-03-25T02:12:52.640Z,0
2016-03-25T02:13:52.626Z,0
2016-03-25T02:14:52.646Z,0
2016-03-25T02:15:52.632Z,0
2016-03-25T02:16:52.650Z,0
2016-03-25T02:17:52.654Z,0
2016-03-25T02:18:52.656Z,0
2016-03-25T02:19:52.658Z,0
2016-03-25T02:20:52.678Z,0
2016-03-25T02:21:52.680Z,0
2016-03-25T02:22:52.683Z,0
2016-03-25T02:23:52.685Z,0
2016-03-25T02:24:52.703Z,0
2016-03-25T02:25:52.706Z,0
2016-03-25T02:26:52.708Z,0
2016-03-25T02:27:52.711Z,0
2016-03-25T02:28:52.713Z,0
2016-03-25T02:29:52.716Z,0
2016-03-25T02:30:52.736Z,0
2016-03-25T02:31:52.738Z,0
2016-03-25T02:32:52.740Z,0
2016-03-25T02:33:52.775Z,0
2016-03-25T02:34:52.762Z,0
2016-03-25T02:35:52.779Z,0
2016-03-25T02:36:52.767Z,0
2016-03-25T02:37:52.770Z,0
2016-03-25T02:38:52.773Z,0
2016-03-25T02:39:52.791Z,0
2016-03-25T02:40:52.809Z,0
2016-03-25T02:41:52.796Z,0
2016-03-25T02:42:52.815Z,0
2016-03-25T02:43:52.832Z,0
2016-03-25T02:44:52.819Z,0
2016-03-25T02:45:52.822Z,0
2016-03-25T02:46:52.848Z,0
2016-03-25T02:47:52.805Z,0
2016-03-25T02:48:52.793Z,0
2016-03-25T02:49:52.811Z,0
2016-03-25T02:50:52.799Z,0
2016-03-25T02:51:52.776Z,0
2016-03-25T02:52:52.773Z,0
2016-03-25T02:53:52.787Z,0
2016-03-25T02:54:52.800Z,0
2016-03-25T02:55:52.798Z,0
2016-03-25T02:56:52.780Z,0
2016-03-25T02:57:52.828Z,0
2016-03-25T02:58:52.798Z,0
2016-03-25T02:59:52.799Z,0
2016-03-25T03:00:52.814Z,0
2016-03-25T03:01:52.801Z,0
2016-03-25T03:02:52.803Z,0
2016-03-25T03:03:52.805Z,0
2016-03-25T03:04:52.854Z,0
2016-03-25T03:05:52.823Z,0
2016-03-25T03:06:52.825Z,0
2016-03-25T03:07:52.844Z,0
2016-03-25T03:08:52.846Z,0
2016-03-25T03:09:52.848Z,0
2016-03-25T03:10:52.851Z,0
2016-03-25T03:11:52.697Z,0
2016-03-25T03:12:52.872Z,0
2016-03-25T03:13:52.875Z,0
2016-03-25T03:14:52.861Z,0
2016-03-25T03:15:52.926Z,0
2016-03-25T03:16:52.883Z,0
2016-03-25T03:17:52.900Z,0
2016-03-25T03:18:52.872Z,0
2016-03-25T03:19:52.906Z,0
2016-03-25T03:20:52.909Z,0
2016-03-25T03:21:52.927Z,0
2016-03-25T03:22:52.914Z,0
2016-03-25T03:23:52.948Z,0
2016-03-25T03:24:52.935Z,0
2016-03-25T03:25:52.953Z,0
2016-03-25T03:26:52.941Z,0
2016-03-25T03:27:52.974Z,0
2016-03-25T03:28:52.978Z,0
2016-03-25T03:29:52.997Z,0
2016-03-25T03:30:52.967Z,0
2016-03-25T03:31:53.002Z,0
2016-03-25T03:32:52.989Z,0
2016-03-25T03:33:53.007Z,0
2016-03-25T03:34:53.041Z,0
2016-03-25T03:35:52.997Z,0
2016-03-25T03:36:52.999Z,0
2016-03-25T03:37:53.034Z,0
2016-03-25T03:38:53.021Z,0
2016-03-25T03:39:53.023Z,0
2016-03-25T03:40:53.027Z,0
2016-03-25T03:41:53.029Z,0
2016-03-25T03:42:53.062Z,0
2016-03-25T03:43:53.050Z,0
2016-03-25T03:44:53.052Z,0
2016-03-25T03:45:53.087Z,0
2016-03-25T03:46:53.058Z,0
2016-03-25T03:47:53.060Z,0
2016-03-25T03:48:53.063Z,0
2016-03-25T03:49:53.065Z,0
2016-03-25T03:50:53.100Z,0
2016-03-25T03:51:53.103Z,0
2016-03-25T03:52:53.120Z,0
2016-03-25T03:53:53.109Z,0
2016-03-25T03:54:53.111Z,0
2016-03-25T03:55:53.144Z,0
2016-03-25T03:56:53.132Z,0
2016-03-25T03:57:53.181Z,0
2016-03-25T03:58:53.137Z,0
2016-03-25T03:59:53.139Z,0
2016-03-25T04:00:53.142Z,0
2016-03-25T04:01:53.161Z,0
2016-03-25T04:02:53.147Z,0
2016-03-25T04:03:53.166Z,0
2016-03-25T04:04:53.013Z,0
2016-03-25T04:05:53.172Z,0
2016-03-25T04:06:53.189Z,0
2016-03-25T04:07:53.176Z,0
2016-03-25T04:08:53.195Z,0
2016-03-25T04:09:53.197Z,0
2016-03-25T04:10:53.200Z,0
2016-03-25T04:11:53.219Z,0
2016-03-25T04:12:53.221Z,0
2016-03-25T04:13:53.224Z,0
2016-03-25T04:14:53.243Z,0
2016-03-25T04:15:53.229Z,0
2016-03-25T04:16:53.263Z,0
2016-03-25T04:17:53.266Z,0
2016-03-25T04:18:53.254Z,0
2016-03-25T04:19:53.256Z,0
2016-03-25T04:20:53.274Z,0
2016-03-25T04:21:53.261Z,0
2016-03-25T04:22:53.280Z,0
2016-03-25T04:23:53.282Z,0
2016-03-25T04:24:53.284Z,0
2016-03-25T04:25:53.131Z,0
2016-03-25T04:26:53.290Z,0
2016-03-25T04:27:53.293Z,0
2016-03-25T04:28:53.311Z,0
2016-03-25T04:29:53.314Z,0
2016-03-25T04:30:53.333Z,0
2016-03-25T04:31:53.319Z,0
2016-03-25T04:32:53.338Z,0
2016-03-25T04:33:53.341Z,0
2016-03-25T04:34:53.358Z,0
2016-03-25T04:35:53.362Z,0
2016-03-25T04:36:53.208Z,0
2016-03-25T04:37:53.382Z,0
2016-03-25T04:38:53.370Z,0
2016-03-25T04:39:53.388Z,0
2016-03-25T04:40:53.390Z,0
2016-03-25T04:41:53.408Z,0
2016-03-25T04:42:53.411Z,0
2016-03-25T04:43:53.399Z,0
2016-03-25T04:44:53.246Z,0
2016-03-25T04:45:53.419Z,0
2016-03-25T04:46:53.437Z,0
2016-03-25T04:47:53.410Z,0
2016-03-25T04:48:53.443Z,0
2016-03-25T04:49:53.429Z,0
2016-03-25T04:50:53.465Z,0
2016-03-25T04:51:53.435Z,0
2016-03-25T04:52:53.454Z,0
2016-03-25T04:53:53.457Z,0
2016-03-25T04:54:53.490Z,0
2016-03-25T04:55:53.462Z,0
2016-03-25T04:56:53.589Z,0
2016-03-25T04:57:53.484Z,0
2016-03-25T04:58:53.501Z,0
2016-03-25T04:59:53.489Z,0
2016-03-25T05:00:53.507Z,0
2016-03-25T05:01:53.509Z,0
2016-03-25T05:02:53.512Z,0
2016-03-25T05:03:53.530Z,0
2016-03-25T05:04:53.533Z,0
2016-03-25T05:05:53.535Z,0
2016-03-25T05:06:53.538Z,0
2016-03-25T05:07:53.558Z,0
2016-03-25T05:08:53.530Z,0
2016-03-25T05:09:53.563Z,0
2016-03-25T05:10:53.551Z,0
2016-03-25T05:11:53.568Z,0
2016-03-25T05:12:53.571Z,0
2016-03-25T05:13:53.574Z,0
2016-03-25T05:14:53.592Z,0
2016-03-25T05:15:53.579Z,0
2016-03-25T05:16:53.597Z,4
2016-03-25T05:17:53.616Z,4
2016-03-25T05:18:52.869Z,4
2016-03-25T05:19:53.605Z,4
2016-03-25T05:20:53.624Z,4
2016-03-25T05:21:53.627Z,4
2016-03-25T05:22:53.629Z,4
2016-03-25T05:23:53.632Z,4
2016-03-25T05:24:53.666Z,4
2016-03-25T05:25:53.653Z,4
2016-03-25T05:26:53.671Z,4
2016-03-25T05:27:53.674Z,4
2016-03-25T05:28:53.661Z,4
2016-03-25T05:29:53.680Z,4
2016-03-25T05:30:53.682Z,12
2016-03-25T05:31:53.685Z,8
2016-03-25T05:32:53.688Z,8
2016-03-25T05:33:53.690Z,8
2016-03-25T05:34:53.693Z,8
2016-03-25T05:35:53.695Z,12
2016-03-25T05:36:53.715Z,12
2016-03-25T05:37:53.717Z,12
2016-03-25T05:38:53.720Z,12
2016-03-25T05:39:53.754Z,16
2016-03-25T05:40:53.725Z,16
2016-03-25T05:41:53.743Z,20
2016-03-25T05:42:53.746Z,24
2016-03-25T05:43:53.764Z,24
2016-03-25T05:44:53.764Z,28
2016-03-25T05:45:53.751Z,28
2016-03-25T05:46:53.769Z,24
2016-03-25T05:47:53.772Z,28
2016-03-25T05:48:53.790Z,28
2016-03-25T05:49:53.778Z,32
2016-03-25T05:50:53.796Z,32
2016-03-25T05:51:53.798Z,40
2016-03-25T05:52:53.802Z,48
2016-03-25T05:53:53.804Z,36
2016-03-25T05:54:53.790Z,36
2016-03-25T05:55:53.825Z,32
2016-03-25T05:56:53.812Z,40
2016-03-25T05:57:53.835Z,36
2016-03-25T05:58:53.838Z,32
2016-03-25T05:59:53.840Z,24
2016-03-25T06:00:53.842Z,32
2016-03-25T06:01:53.862Z,28
2016-03-25T06:02:53.864Z,32
2016-03-25T06:03:53.851Z,40
2016-03-25T06:04:53.854Z,48
2016-03-25T06:05:53.887Z,60
2016-03-25T06:06:53.718Z,56
2016-03-25T06:07:53.893Z,56
2016-03-25T06:08:53.895Z,60
2016-03-25T06:09:53.898Z,68
2016-03-25T06:10:53.901Z,72
2016-03-25T06:11:53.903Z,76
2016-03-25T06:12:53.923Z,80
2016-03-25T06:13:53.925Z,84
2016-03-25T06:14:53.927Z,88
2016-03-25T06:15:53.931Z,92
2016-03-25T06:16:53.933Z,96
2016-03-25T06:17:53.951Z,96
2016-03-25T06:18:53.938Z,96
2016-03-25T06:19:53.972Z,96
2016-03-25T06:20:53.944Z,96
2016-03-25T06:21:53.977Z,100
2016-03-25T06:22:53.980Z,104
2016-03-25T06:23:53.983Z,104
2016-03-25T06:24:53.985Z,108
2016-03-25T06:25:54.004Z,112
2016-03-25T06:26:53.991Z,116
2016-03-25T06:27:53.993Z,116
2016-03-25T06:28:54.012Z,116
2016-03-25T06:29:53.999Z,124
2016-03-25T06:30:54.017Z,128
2016-03-25T06:31:54.020Z,132
2016-03-25T06:32:54.054Z,136
2016-03-25T06:33:54.026Z,140
2016-03-25T06:34:54.044Z,148
2016-03-25T06:35:54.046Z,152
2016-03-25T06:36:54.049Z,160
2016-03-25T06:37:54.052Z,172
2016-03-25T06:38:54.054Z,180
2016-03-25T06:39:54.072Z,184
2016-03-25T06:40:54.076Z,192
2016-03-25T06:41:54.078Z,192
2016-03-25T06:42:54.080Z,192
2016-03-25T06:43:54.084Z,196
2016-03-25T06:44:54.086Z,196
2016-03-25T06:45:54.105Z,184
2016-03-25T06:46:54.108Z,184
2016-03-25T06:47:54.110Z,192
2016-03-25T06:48:54.113Z,200
2016-03-25T06:49:54.131Z,196
2016-03-25T06:50:54.133Z,204
2016-03-25T06:51:54.136Z,204
2016-03-25T06:52:54.139Z,212
2016-03-25T06:53:54.141Z,220
2016-03-25T06:54:54.161Z,224
2016-03-25T06:55:54.163Z,224
2016-03-25T06:56:54.165Z,224
2016-03-25T06:57:54.168Z,224
2016-03-25T06:58:54.171Z,216
2016-03-25T06:59:54.173Z,196
2016-03-25T07:00:54.192Z,204
2016-03-25T07:01:54.195Z,204
2016-03-25T07:02:54.213Z,200
2016-03-25T07:03:54.200Z,200
2016-03-25T07:04:54.234Z,204
2016-03-25T07:05:54.236Z,212
2016-03-25T07:06:54.270Z,212
2016-03-25T07:07:54.242Z,204
2016-03-25T07:08:54.229Z,204
2016-03-25T07:09:54.247Z,204
2016-03-25T07:10:54.251Z,208
2016-03-25T07:11:54.253Z,196
2016-03-25T07:12:54.255Z,192
2016-03-25T07:13:54.273Z,192
2016-03-25T07:14:54.261Z,176
2016-03-25T07:15:54.294Z,180
2016-03-25T07:16:54.281Z,200
2016-03-25T07:17:54.284Z,208
2016-03-25T07:18:54.286Z,212
2016-03-25T07:19:54.306Z,204
2016-03-25T07:20:54.324Z,204
2016-03-25T07:21:54.310Z,196
2016-03-25T07:22:54.330Z,188
2016-03-25T07:23:54.410Z,192
2016-03-25T07:24:54.318Z,192
2016-03-25T07:25:54.227Z,188
2016-03-25T07:26:54.340Z,184
2016-03-25T07:27:54.358Z,180
2016-03-25T07:28:54.346Z,184
2016-03-25T07:29:54.380Z,188
2016-03-25T07:30:54.366Z,200
2016-03-25T07:31:54.213Z,204
2016-03-25T07:32:54.371Z,228
2016-03-25T07:33:54.374Z,232
2016-03-25T07:34:54.392Z,244
2016-03-25T07:35:54.396Z,244
2016-03-25T07:36:54.398Z,244
2016-03-25T07:37:54.401Z,244
2016-03-25T07:38:54.451Z,232
2016-03-25T07:39:54.406Z,228
2016-03-25T07:40:54.424Z,232
2016-03-25T07:41:54.428Z,232
2016-03-25T07:42:54.445Z,224
2016-03-25T07:43:54.448Z,228
2016-03-25T07:44:54.451Z,252
2016-03-25T07:45:54.470Z,264
2016-03-25T07:46:54.456Z,264
2016-03-25T07:47:54.459Z,264
2016-03-25T07:48:54.478Z,256
2016-03-25T07:49:54.495Z,244
2016-03-25T07:50:54.498Z,228
2016-03-25T07:51:54.485Z,216
2016-03-25T07:52:54.503Z,216
2016-03-25T07:53:54.631Z,200
2016-03-25T07:54:54.522Z,200
2016-03-25T07:55:54.509Z,212
2016-03-25T07:56:54.511Z,232
2016-03-25T07:57:54.529Z,240
2016-03-25T07:58:54.548Z,224
2016-03-25T07:59:54.536Z,212
2016-03-25T08:00:54.554Z,212
2016-03-25T08:01:54.540Z,244
2016-03-25T08:02:54.575Z,256
2016-03-25T08:03:54.562Z,268
2016-03-25T08:04:54.564Z,276
2016-03-25T08:05:54.676Z,272
2016-03-25T08:06:54.601Z,260
2016-03-25T08:07:54.620Z,284
2016-03-25T08:08:54.606Z,296
2016-03-25T08:09:54.593Z,292
2016-03-25T08:10:54.596Z,272
2016-03-25T08:11:54.630Z,280
2016-03-25T08:12:54.617Z,288
2016-03-25T08:13:54.636Z,324
2016-03-25T08:14:54.622Z,368
2016-03-25T08:15:54.656Z,380
2016-03-25T08:16:54.644Z,376
2016-03-25T08:17:54.647Z,396
2016-03-25T08:18:54.508Z,408
2016-03-25T08:19:54.667Z,416
2016-03-25T08:20:54.686Z,412
2016-03-25T08:21:54.672Z,412
2016-03-25T08:22:54.691Z,416
2016-03-25T08:23:54.694Z,432
2016-03-25T08:24:54.711Z,440
2016-03-25T08:25:54.714Z,436
2016-03-25T08:26:54.733Z,452
2016-03-25T08:27:54.719Z,396
2016-03-25T08:28:54.738Z,388
2016-03-25T08:29:54.725Z,356
2016-03-25T08:30:58.528Z,336
2016-03-25T08:31:54.747Z,312
2016-03-25T08:32:54.749Z,348
2016-03-25T08:33:54.752Z,316
2016-03-25T08:34:54.771Z,280
2016-03-25T08:35:54.773Z,296
2016-03-25T08:36:54.776Z,320
2016-03-25T08:37:54.793Z,324
2016-03-25T08:38:54.781Z,332
2016-03-25T08:39:54.798Z,352
2016-03-25T08:40:54.801Z,304
2016-03-25T08:41:54.820Z,280
2016-03-25T08:42:54.823Z,292
2016-03-25T08:43:54.842Z,304
2016-03-25T08:44:54.844Z,352
2016-03-25T08:45:54.831Z,360
2016-03-25T08:46:54.850Z,308
2016-03-25T08:47:54.852Z,316
2016-03-25T08:48:54.855Z,284
2016-03-25T08:49:54.873Z,304
2016-03-25T08:50:54.876Z,332
2016-03-25T08:51:54.879Z,320
2016-03-25T08:52:54.897Z,288
2016-03-25T08:53:54.884Z,280
2016-03-25T08:54:54.902Z,268
2016-03-25T08:55:54.905Z,248
2016-03-25T08:56:54.923Z,264
2016-03-25T08:57:54.910Z,228
2016-03-25T08:58:54.928Z,268
2016-03-25T08:59:54.930Z,284
2016-03-25T09:00:54.949Z,284
2016-03-25T09:01:54.936Z,260
2016-03-25T09:02:54.955Z,280
2016-03-25T09:03:54.974Z,268
2016-03-25T09:04:54.991Z,316
2016-03-25T09:05:54.978Z,344
2016-03-25T09:06:54.981Z,340
2016-03-25T09:07:54.999Z,324
2016-03-25T09:08:54.986Z,284
2016-03-25T09:09:55.004Z,292
2016-03-25T09:10:55.007Z,308
2016-03-25T09:11:55.010Z,300
2016-03-25T09:12:55.028Z,248
2016-03-25T09:13:55.031Z,244
2016-03-25T09:14:55.034Z,268
2016-03-25T09:15:55.053Z,268
2016-03-25T09:16:55.055Z,244
2016-03-25T09:17:55.058Z,240
2016-03-25T09:18:55.076Z,300
2016-03-25T09:19:55.064Z,340
2016-03-25T09:20:55.066Z,332
2016-03-25T09:21:55.100Z,344
2016-03-25T09:22:55.087Z,340
2016-03-25T09:23:55.090Z,356
2016-03-25T09:24:55.108Z,352
2016-03-25T09:25:55.111Z,324
2016-03-25T09:26:55.176Z,364
2016-03-25T09:27:55.147Z,348
2016-03-25T09:28:55.119Z,380
2016-03-25T09:29:55.137Z,392
2016-03-25T09:30:55.155Z,412
2016-03-25T09:31:55.158Z,412
2016-03-25T09:32:55.161Z,460
2016-03-25T09:33:55.163Z,504
2016-03-25T09:34:55.166Z,548
2016-03-25T09:35:55.185Z,572
2016-03-25T09:36:55.187Z,592
2016-03-25T09:37:55.190Z,580
2016-03-25T09:38:55.208Z,552
2016-03-25T09:39:55.226Z,468
2016-03-25T09:40:55.213Z,392
2016-03-25T09:41:55.215Z,404
2016-03-25T09:42:55.219Z,400
2016-03-25T09:43:55.237Z,348
2016-03-25T09:44:55.240Z,368
2016-03-25T09:45:55.243Z,360
2016-03-25T09:46:55.245Z,320
2016-03-25T09:47:55.247Z,360
2016-03-25T09:48:55.266Z,444
2016-03-25T09:49:55.269Z,440
2016-03-25T09:50:55.287Z,436
2016-03-25T09:51:55.289Z,424
2016-03-25T09:52:55.293Z,420
2016-03-25T09:53:55.295Z,432
2016-03-25T09:54:55.313Z,440
2016-03-25T09:55:55.317Z,464
2016-03-25T09:56:55.319Z,456
2016-03-25T09:57:55.337Z,492
2016-03-25T09:58:55.355Z,524
2016-03-25T09:59:55.359Z,512
2016-03-25T10:00:55.345Z,484
2016-03-25T10:01:55.348Z,428
2016-03-25T10:02:55.336Z,428
2016-03-25T10:03:55.385Z,448
2016-03-25T10:04:55.372Z,460
2016-03-25T10:05:55.391Z,508
2016-03-25T10:06:55.377Z,516
2016-03-25T10:07:55.396Z,476
2016-03-25T10:08:55.398Z,444
2016-03-25T10:09:55.401Z,448
2016-03-25T10:10:55.435Z,400
2016-03-25T10:11:55.437Z,400
2016-03-25T10:12:55.471Z,404
2016-03-25T10:13:55.443Z,404
2016-03-25T10:14:55.462Z,424
2016-03-25T10:15:55.448Z,396
2016-03-25T10:16:55.466Z,340
2016-03-25T10:17:55.454Z,336
2016-03-25T10:18:55.487Z,292
2016-03-25T10:19:55.475Z,320
2016-03-25T10:20:55.493Z,404
2016-03-25T10:21:55.496Z,436
2016-03-25T10:22:55.514Z,468
2016-03-25T10:23:55.500Z,460
2016-03-25T10:24:55.504Z,460
2016-03-25T10:25:55.522Z,520
2016-03-25T10:26:55.525Z,568
2016-03-25T10:27:55.542Z,588
2016-03-25T10:28:55.545Z,544
2016-03-25T10:29:55.547Z,496
2016-03-25T10:30:55.550Z,460
2016-03-25T10:31:55.569Z,440
2016-03-25T10:32:55.556Z,448
2016-03-25T10:33:55.574Z,472
2016-03-25T10:34:55.577Z,432
2016-03-25T10:35:55.580Z,404
2016-03-25T10:36:55.582Z,424
2016-03-25T10:37:55.601Z,436
2016-03-25T10:38:55.619Z,400
2016-03-25T10:39:55.621Z,424
2016-03-25T10:40:55.624Z,448
2016-03-25T10:41:55.627Z,444
2016-03-25T10:42:55.629Z,456
2016-03-25T10:43:55.679Z,524
2016-03-25T10:44:55.651Z,560
2016-03-25T10:45:55.653Z,556
2016-03-25T10:46:55.672Z,580
2016-03-25T10:47:55.659Z,552
2016-03-25T10:48:55.693Z,540
2016-03-25T10:49:55.680Z,508
2016-03-25T10:50:55.698Z,544
2016-03-25T10:51:55.701Z,548
2016-03-25T10:52:55.703Z,488
2016-03-25T10:53:55.706Z,472
2016-03-25T10:54:55.709Z,468
2016-03-25T10:55:55.742Z,468
2016-03-25T10:56:55.730Z,504
2016-03-25T10:57:55.748Z,532
2016-03-25T10:58:55.750Z,552
2016-03-25T10:59:55.753Z,572
2016-03-25T11:00:55.756Z,584
2016-03-25T11:01:55.758Z,556
2016-03-25T11:02:55.777Z,556
2016-03-25T11:03:55.780Z,564
2016-03-25T11:04:55.783Z,580
2016-03-25T11:05:55.816Z,596
2016-03-25T11:06:55.804Z,616
2016-03-25T11:07:55.807Z,604
2016-03-25T11:08:55.809Z,604
2016-03-25T11:09:55.827Z,616
2016-03-25T11:10:55.830Z,588
2016-03-25T11:11:55.832Z,592
2016-03-25T11:12:55.835Z,596
2016-03-25T11:13:55.854Z,592
2016-03-25T11:14:55.856Z,608
2016-03-25T11:15:55.859Z,608
2016-03-25T11:16:55.878Z,608
2016-03-25T11:17:55.864Z,640
2016-03-25T11:18:55.883Z,668
2016-03-25T11:19:55.901Z,676
2016-03-25T11:20:55.889Z,676
2016-03-25T11:21:55.922Z,672
2016-03-25T11:22:55.909Z,676
2016-03-25T11:23:55.912Z,676
2016-03-25T11:24:55.915Z,660
2016-03-25T11:25:55.934Z,628
2016-03-25T11:26:55.936Z,632
2016-03-25T11:27:55.939Z,612
2016-03-25T11:28:55.957Z,588
2016-03-25T11:29:55.960Z,560
2016-03-25T11:30:55.962Z,548
2016-03-25T11:31:55.981Z,584
2016-03-25T11:32:55.984Z,572
2016-03-25T11:33:55.986Z,584
2016-03-25T11:34:55.989Z,624
2016-03-25T11:35:55.976Z,612
2016-03-25T11:36:56.041Z,616
2016-03-25T11:37:56.013Z,612
2016-03-25T11:38:56.031Z,592
2016-03-25T11:39:56.019Z,596
2016-03-25T11:40:56.029Z,592
2016-03-25T11:41:56.398Z,588
2016-03-25T11:42:55.884Z,544
2016-03-25T11:43:57.709Z,512
2016-03-25T11:44:56.102Z,500
2016-03-25T11:45:56.105Z,528
2016-03-25T11:46:56.060Z,536
2016-03-25T11:47:56.079Z,556
2016-03-25T11:48:56.096Z,540
2016-03-25T11:49:56.084Z,560
2016-03-25T11:50:56.102Z,596
2016-03-25T11:51:56.104Z,552
2016-03-25T11:52:56.107Z,520
2016-03-25T11:53:56.109Z,508
2016-03-25T11:54:56.038Z,548
2016-03-25T11:55:56.109Z,600
2016-03-25T11:56:56.115Z,564
2016-03-25T11:57:56.091Z,524
2016-03-25T11:58:56.104Z,548
2016-03-25T11:59:56.088Z,540
2016-03-25T12:00:56.101Z,540
2016-03-25T12:01:56.085Z,568
2016-03-25T12:02:56.114Z,608
2016-03-25T12:03:56.115Z,520
2016-03-25T12:04:56.117Z,428
2016-03-25T12:05:56.119Z,392
2016-03-25T12:06:56.136Z,392
2016-03-25T12:07:56.122Z,392
2016-03-25T12:08:56.139Z,384
2016-03-25T12:09:56.142Z,356
2016-03-25T12:10:56.158Z,324
2016-03-25T12:11:56.660Z,308
2016-03-25T12:12:56.147Z,304
2016-03-25T12:13:56.181Z,280
2016-03-25T12:14:56.168Z,308
2016-03-25T12:15:56.170Z,340
2016-03-25T12:16:56.064Z,364
2016-03-25T12:17:56.317Z,464
2016-03-25T12:18:56.319Z,424
2016-03-25T12:19:56.447Z,384
2016-03-25T12:20:56.231Z,380
2016-03-25T12:21:56.218Z,356
2016-03-25T12:22:56.378Z,372
2016-03-25T12:23:56.567Z,320
2016-03-25T12:24:56.242Z,312
2016-03-25T12:25:56.244Z,264
2016-03-25T12:26:56.341Z,240
2016-03-25T12:27:57.234Z,228
2016-03-25T12:28:56.268Z,236
2016-03-25T12:29:56.661Z,232
2016-03-25T12:30:56.288Z,232
2016-03-25T12:31:56.542Z,220
2016-03-25T12:32:56.279Z,232
2016-03-25T12:33:56.328Z,256
2016-03-25T12:34:56.316Z,264
2016-03-25T12:35:56.318Z,276
2016-03-25T12:36:56.352Z,276
2016-03-25T12:37:56.464Z,308
2016-03-25T12:38:56.342Z,304
2016-03-25T12:39:56.345Z,272
2016-03-25T12:40:56.348Z,284
2016-03-25T12:41:56.365Z,272
2016-03-25T12:42:56.368Z,248
2016-03-25T12:43:56.371Z,232
2016-03-25T12:44:56.373Z,228
2016-03-25T12:45:56.439Z,224
2016-03-25T12:46:56.378Z,212
2016-03-25T12:47:56.414Z,196
2016-03-25T12:48:56.400Z,192
2016-03-25T12:49:56.450Z,188
2016-03-25T12:50:56.405Z,176
2016-03-25T12:51:56.424Z,188
2016-03-25T12:52:56.536Z,176
2016-03-25T12:53:56.460Z,164
2016-03-25T12:54:56.400Z,156
2016-03-25T12:55:56.466Z,152
2016-03-25T12:56:56.453Z,140
2016-03-25T12:57:56.566Z,152
2016-03-25T12:58:56.474Z,144
2016-03-25T12:59:56.477Z,144
2016-03-25T13:00:56.494Z,140
2016-03-25T13:01:56.419Z,140
2016-03-25T13:02:57.063Z,136
2016-03-25T13:03:56.549Z,140
2016-03-25T13:04:56.568Z,152
2016-03-25T13:05:56.587Z,164
2016-03-25T13:06:56.526Z,168
2016-03-25T13:07:56.888Z,168
2016-03-25T13:08:57.391Z,164
2016-03-25T13:09:56.535Z,164
2016-03-25T13:10:56.568Z,164
2016-03-25T13:11:56.556Z,160
2016-03-25T13:12:56.417Z,240
2016-03-25T13:13:56.702Z,292
2016-03-25T13:14:56.579Z,192
2016-03-25T13:15:56.614Z,176
2016-03-25T13:16:56.601Z,172
2016-03-25T13:17:56.587Z,260
2016-03-25T13:18:56.731Z,280
2016-03-25T13:19:57.233Z,264
2016-03-25T13:20:56.986Z,280
2016-03-25T13:21:56.645Z,268
2016-03-25T13:22:56.633Z,268
2016-03-25T13:23:56.635Z,268
2016-03-25T13:24:56.653Z,280
2016-03-25T13:25:56.655Z,272
2016-03-25T13:26:57.097Z,272
2016-03-25T13:27:56.692Z,276
2016-03-25T13:28:56.680Z,284
2016-03-25T13:29:56.683Z,272
2016-03-25T13:30:56.732Z,252
2016-03-25T13:31:56.953Z,236
2016-03-25T13:32:56.705Z,236
2016-03-25T13:33:56.708Z,224
2016-03-25T13:34:56.727Z,216
2016-03-25T13:35:56.761Z,216
2016-03-25T13:36:56.748Z,208
2016-03-25T13:37:56.766Z,204
2016-03-25T13:38:56.753Z,196
2016-03-25T13:39:56.710Z,192
2016-03-25T13:40:56.774Z,200
2016-03-25T13:41:56.777Z,200
2016-03-25T13:42:56.780Z,208
2016-03-25T13:43:56.782Z,200
2016-03-25T13:44:56.785Z,200
2016-03-25T13:45:56.787Z,196
2016-03-25T13:46:56.790Z,200
2016-03-25T13:47:56.793Z,192
2016-03-25T13:48:56.812Z,192
2016-03-25T13:49:56.830Z,192
2016-03-25T13:50:56.817Z,192
2016-03-25T13:51:56.835Z,204
2016-03-25T13:52:56.839Z,204
2016-03-25T13:53:56.856Z,200
2016-03-25T13:54:57.140Z,188
2016-03-25T13:55:56.878Z,184
2016-03-25T13:56:56.864Z,172
2016-03-25T13:57:56.727Z,168
2016-03-25T13:58:56.885Z,164
2016-03-25T13:59:56.903Z,164
2016-03-25T14:00:56.891Z,164
2016-03-25T14:01:56.909Z,160
2016-03-25T14:02:56.911Z,168
2016-03-25T14:03:56.914Z,168
2016-03-25T14:04:56.916Z,164
2016-03-25T14:05:56.920Z,168
2016-03-25T14:06:56.969Z,164
2016-03-25T14:07:56.957Z,160
2016-03-25T14:08:56.959Z,164
2016-03-25T14:09:56.993Z,156
2016-03-25T14:10:56.965Z,164